RJSH(METAR)
06/28 22:00
METAR RJSH 281300Z 28003KT 9999 FEW030 SCT100 17/15 Q1014 RMK 1CU030
4AC100 A2995=
戻る
トップページへ戻る
IMOC Co,.Ltd.